Time;durP1;ratioP1;P1;durP2;ratioP2;P2;SDS_P1;SDS_P2;PMS_P1;PMS_P2;Temp;Humidity;BMP_temperature;BMP_pressure;BME280_temperature;BME280_humidity;BME280_pressure;Samples;Min_cycle;Max_cycle;Signal;HPM_P1;HPM_P2
2022/01/09 00:02:04;;;;;;;1.60;1.50;;;;;;;3.13;64.71;93810.72;4341753;32;20334;-60
2022/01/09 00:04:30;;;;;;;1.60;1.43;;;;;;;2.91;64.80;93810.53;4349661;32;20229;-59
2022/01/09 00:06:56;;;;;;;2.00;1.40;;;;;;;2.65;65.96;93795.13;4338217;32;20285;-59
2022/01/09 00:09:21;;;;;;;1.43;1.33;;;;;;;2.78;65.55;93795.50;4349117;32;20213;-59
2022/01/09 00:11:48;;;;;;;1.93;1.77;;;;;;;2.71;66.17;93788.75;4337906;32;20296;-59
2022/01/09 00:14:18;;;;;;;1.37;1.27;;;;;;;2.92;65.54;93797.13;4334394;32;20208;-60
2022/01/09 00:16:44;;;;;;;1.33;1.23;;;;;;;3.13;64.64;93789.75;4342000;32;20285;-59
2022/01/09 00:19:12;;;;;;;2.43;1.70;;;;;;;3.01;65.05;93784.19;4340506;32;20343;-59
2022/01/09 00:21:37;;;;;;;2.13;1.50;;;;;;;2.96;65.05;93779.00;4341973;32;20315;-60
2022/01/09 00:24:08;;;;;;;4.43;1.60;;;;;;;2.91;65.55;93772.00;4338522;32;20294;-59
2022/01/09 00:26:33;;;;;;;1.77;1.57;;;;;;;2.88;65.54;93767.34;4339120;32;20298;-59
2022/01/09 00:29:01;;;;;;;1.50;1.40;;;;;;;2.67;66.33;93774.69;4338302;32;20320;-59
2022/01/09 00:31:31;;;;;;;1.70;1.40;;;;;;;2.82;65.58;93778.16;4350079;32;20364;-59
2022/01/09 00:33:57;;;;;;;1.67;1.40;;;;;;;2.72;66.76;93774.59;4363940;32;20380;-59
2022/01/09 00:36:27;;;;;;;1.07;1.07;;;;;;;2.50;67.19;93761.28;4367699;32;20270;-59
2022/01/09 00:38:52;;;;;;;1.73;1.60;;;;;;;2.39;67.42;93767.72;4322274;32;20301;-60
2022/01/09 00:41:22;;;;;;;1.63;1.53;;;;;;;2.60;67.01;93766.41;4289223;32;20305;-59
2022/01/09 00:43:53;;;;;;;1.50;1.40;;;;;;;2.66;67.04;93767.13;4347175;32;20196;-59
2022/01/09 00:46:20;;;;;;;1.63;1.40;;;;;;;2.90;66.26;93761.84;4360037;32;20305;-59
2022/01/09 00:48:48;;;;;;;1.50;1.40;;;;;;;2.62;67.22;93759.06;4349681;32;20281;-59
2022/01/09 00:51:14;;;;;;;1.13;1.10;;;;;;;2.64;66.83;93756.94;4333082;32;20285;-60
2022/01/09 00:53:39;;;;;;;1.30;1.20;;;;;;;2.58;67.04;93768.53;4337881;32;20349;-59
2022/01/09 00:56:05;;;;;;;1.20;1.10;;;;;;;2.35;67.50;93756.25;4373480;32;20307;-59
2022/01/09 00:58:30;;;;;;;1.10;0.97;;;;;;;2.46;67.81;93746.44;4342380;32;20239;-59
2022/01/09 01:01:00;;;;;;;2.40;1.47;;;;;;;2.61;67.72;93741.00;4338571;32;20188;-59
2022/01/09 01:03:26;;;;;;;1.40;1.30;;;;;;;2.87;66.54;93721.28;4352871;32;20288;-59
2022/01/09 01:05:52;;;;;;;1.20;1.10;;;;;;;3.08;65.38;93721.75;4353017;32;20331;-59
2022/01/09 01:08:18;;;;;;;1.60;1.30;;;;;;;2.99;66.31;93715.59;4349180;32;20300;-60
2022/01/09 01:10:45;;;;;;;1.20;1.17;;;;;;;2.96;65.96;93706.47;4325591;32;20194;-59
2022/01/09 01:13:11;;;;;;;1.30;1.20;;;;;;;3.17;65.35;93703.53;4360169;32;20240;-59
2022/01/09 01:15:38;;;;;;;1.40;1.30;;;;;;;3.05;65.73;93715.25;4329842;32;20303;-59
2022/01/09 01:18:08;;;;;;;1.73;1.20;;;;;;;3.27;65.27;93706.75;4321019;32;20349;-59
2022/01/09 01:20:35;;;;;;;1.57;1.37;;;;;;;3.20;66.18;93701.09;4365704;32;20299;-58
2022/01/09 01:23:02;;;;;;;2.23;1.50;;;;;;;3.33;65.31;93702.19;4319125;32;20339;-59
2022/01/09 01:25:28;;;;;;;1.53;1.23;;;;;;;3.12;65.64;93709.62;4347103;32;20289;-59
2022/01/09 01:27:55;;;;;;;1.10;1.10;;;;;;;3.10;66.25;93709.16;4278338;33;20295;-59
2022/01/09 01:30:23;;;;;;;1.50;1.23;;;;;;;3.32;65.51;93704.06;4317128;32;20328;-60
2022/01/09 01:32:55;;;;;;;1.80;1.40;;;;;;;3.38;65.34;93702.12;4331953;32;20294;-60
2022/01/09 01:35:22;;;;;;;1.47;1.37;;;;;;;3.40;64.95;93711.25;4358798;32;20404;-60
2022/01/09 01:37:47;;;;;;;1.23;1.20;;;;;;;3.12;65.94;93720.09;4329742;32;20282;-60
2022/01/09 01:40:16;;;;;;;1.53;1.43;;;;;;;3.11;66.17;93715.94;4316931;32;20285;-59
2022/01/09 01:42:42;;;;;;;1.40;1.30;;;;;;;3.15;65.92;93731.84;4330662;32;20202;-59
2022/01/09 01:45:14;;;;;;;3.60;1.10;;;;;;;2.81;67.79;93721.63;4339532;32;20304;-59
2022/01/09 01:47:39;;;;;;;1.23;1.23;;;;;;;2.58;70.51;93694.47;4326781;32;20197;-63
2022/01/09 01:50:09;;;;;;;1.30;1.20;;;;;;;2.65;72.59;93679.97;4326457;32;20300;-59
2022/01/09 01:52:43;;;;;;;1.30;1.20;;;;;;;2.42;74.52;93675.59;4352657;32;20227;-60
2022/01/09 01:55:12;;;;;;;1.60;1.50;;;;;;;2.42;74.36;93676.38;4347658;32;20337;-60
2022/01/09 01:57:40;;;;;;;1.50;1.40;;;;;;;2.88;73.80;93680.94;4345896;32;20285;-59
2022/01/09 02:00:14;;;;;;;1.60;1.50;;;;;;;2.87;74.58;93707.41;4328793;32;20302;-59
2022/01/09 02:02:40;;;;;;;4.10;1.40;;;;;;;2.90;75.71;93704.22;4349670;32;20293;-59
2022/01/09 02:05:09;;;;;;;1.20;1.10;;;;;;;2.91;75.54;93708.41;4343684;32;20286;-59
2022/01/09 02:07:38;;;;;;;1.30;1.20;;;;;;;3.06;75.16;93710.78;4333220;32;20301;-59
2022/01/09 02:10:08;;;;;;;1.27;1.17;;;;;;;3.16;75.23;93715.06;4328971;32;20301;-59
2022/01/09 02:12:40;;;;;;;1.30;1.20;;;;;;;3.23;74.57;93705.78;4318448;32;20289;-60
2022/01/09 02:15:32;;;;;;;1.13;1.10;;;;;;;3.22;75.71;93712.09;4345364;32;20376;-59
2022/01/09 02:18:01;;;;;;;1.40;1.30;;;;;;;3.09;75.99;93711.00;4357425;32;20285;-59
2022/01/09 02:20:32;;;;;;;1.30;1.20;;;;;;;3.26;75.79;93704.44;4341923;32;20337;-59
2022/01/09 02:22:59;;;;;;;1.33;1.23;;;;;;;3.35;76.52;93721.03;4352754;32;20344;-59
2022/01/09 02:25:26;;;;;;;1.20;1.10;;;;;;;3.23;77.17;93725.97;4352346;32;20308;-59
2022/01/09 02:27:52;;;;;;;1.20;1.00;;;;;;;3.33;76.87;93705.59;4312979;32;20425;-59
2022/01/09 02:30:18;;;;;;;2.20;1.13;;;;;;;3.28;77.64;93713.56;4337031;32;20360;-58
2022/01/09 02:32:45;;;;;;;1.53;0.83;;;;;;;3.15;78.50;93703.81;4326399;32;20325;-60
2022/01/09 02:35:11;;;;;;;1.10;0.97;;;;;;;3.12;79.80;93684.19;4328526;32;20234;-60
2022/01/09 02:37:37;;;;;;;0.70;0.70;;;;;;;3.26;80.38;93671.16;4344585;32;20282;-59
2022/01/09 02:40:07;;;;;;;2.13;1.13;;;;;;;3.24;81.08;93675.13;4345854;32;20277;-58
2022/01/09 02:42:43;;;;;;;0.70;0.70;;;;;;;3.21;81.91;93655.50;4347082;32;20265;-59
2022/01/09 02:45:10;;;;;;;2.27;0.70;;;;;;;3.39;81.21;93672.22;4358835;32;20354;-59
2022/01/09 02:47:40;;;;;;;0.50;0.50;;;;;;;2.99;83.09;93660.59;4376498;32;20311;-59
2022/01/09 02:50:29;;;;;;;0.80;0.80;;;;;;;3.01;84.04;93656.62;4346926;32;20331;-59
2022/01/09 02:53:13;;;;;;;0.50;0.50;;;;;;;3.08;84.62;93658.87;4359730;32;20323;-59
2022/01/09 02:55:46;;;;;;;0.47;0.47;;;;;;;3.14;84.84;93670.03;4351270;32;20284;-59
2022/01/09 02:58:16;;;;;;;1.20;0.70;;;;;;;3.11;85.77;93660.94;4347309;32;20310;-59
2022/01/09 03:00:44;;;;;;;0.60;0.60;;;;;;;3.01;87.08;93648.78;4355363;32;20297;-59
2022/01/09 03:03:12;;;;;;;0.60;0.50;;;;;;;3.07;87.44;93654.72;4320094;32;20345;-59
2022/01/09 03:05:38;;;;;;;0.40;0.40;;;;;;;3.08;87.40;93651.81;4336617;32;20282;-59
2022/01/09 03:08:11;;;;;;;0.20;0.20;;;;;;;3.16;87.10;93637.25;4322683;32;20313;-59
2022/01/09 03:10:59;;;;;;;0.70;0.50;;;;;;;3.09;87.90;93634.25;4346758;32;20248;-60
2022/01/09 03:13:28;;;;;;;0.30;0.30;;;;;;;3.14;88.09;93628.91;4341608;32;20284;-59
2022/01/09 03:15:55;;;;;;;0.40;0.40;;;;;;;3.21;87.76;93625.91;4348065;32;20312;-59
2022/01/09 03:18:20;;;;;;;0.30;0.30;;;;;;;3.30;87.63;93622.34;4318786;32;20328;-60
2022/01/09 03:20:51;;;;;;;0.20;0.20;;;;;;;3.19;88.17;93618.34;4341471;32;20285;-60
2022/01/09 03:23:16;;;;;;;0.40;0.23;;;;;;;3.25;87.58;93598.84;4356454;32;20281;-60
2022/01/09 03:25:43;;;;;;;0.20;0.20;;;;;;;3.32;87.42;93588.00;4360855;32;20295;-59
2022/01/09 03:28:08;;;;;;;0.57;0.40;;;;;;;3.08;88.44;93588.94;4347762;32;20202;-59
2022/01/09 03:30:34;;;;;;;0.20;0.20;;;;;;;3.24;88.36;93591.28;4361492;32;20339;-60
2022/01/09 03:33:02;;;;;;;0.30;0.30;;;;;;;3.41;87.75;93592.25;4337783;32;20284;-59
2022/01/09 03:35:30;;;;;;;0.27;0.27;;;;;;;3.51;86.76;93585.28;4329182;32;20348;-59
2022/01/09 03:37:56;;;;;;;0.30;0.30;;;;;;;3.44;87.33;93581.19;4307979;32;20308;-60
2022/01/09 03:40:25;;;;;;;0.30;0.30;;;;;;;3.23;88.22;93579.25;4334233;32;20293;-60
2022/01/09 03:42:53;;;;;;;0.40;0.40;;;;;;;3.18;88.89;93582.72;4311215;33;20229;-59
2022/01/09 03:45:21;;;;;;;0.33;0.33;;;;;;;3.21;88.91;93576.91;4321246;32;20292;-59
2022/01/09 03:47:52;;;;;;;0.43;0.40;;;;;;;3.06;89.19;93577.97;4327103;32;20337;-59
2022/01/09 03:50:19;;;;;;;0.40;0.40;;;;;;;3.25;88.93;93577.13;4344952;32;20286;-59
2022/01/09 03:52:50;;;;;;;0.30;0.30;;;;;;;3.43;88.00;93576.25;4346964;32;20280;-59
2022/01/09 03:55:27;;;;;;;0.30;0.30;;;;;;;3.50;87.88;93573.25;4344134;32;20286;-59
2022/01/09 03:57:56;;;;;;;1.17;0.50;;;;;;;3.44;87.47;93575.97;4333069;32;20424;-59
2022/01/09 04:00:25;;;;;;;0.40;0.40;;;;;;;3.28;88.25;93585.19;4325979;32;20319;-59
2022/01/09 04:02:53;;;;;;;0.40;0.40;;;;;;;3.22;88.82;93583.72;4344788;32;20317;-59
2022/01/09 04:05:23;;;;;;;0.50;0.40;;;;;;;3.42;88.02;93574.69;4333790;32;20297;-59
2022/01/09 04:07:51;;;;;;;0.40;0.40;;;;;;;3.62;86.88;93576.91;4345602;32;20308;-59
2022/01/09 04:10:25;;;;;;;0.40;0.40;;;;;;;3.63;87.06;93575.06;4348831;32;20325;-60
2022/01/09 04:12:59;;;;;;;0.30;0.30;;;;;;;3.61;87.06;93577.22;4349750;32;20292;-59
2022/01/09 04:15:28;;;;;;;0.50;0.50;;;;;;;3.68;86.71;93588.09;4342641;32;20288;-60
2022/01/09 04:17:56;;;;;;;0.40;0.40;;;;;;;3.74;86.39;93589.53;4321110;32;20352;-60
2022/01/09 04:20:28;;;;;;;0.33;0.33;;;;;;;3.81;85.89;93595.16;4325535;32;20281;-59
2022/01/09 04:22:55;;;;;;;0.50;0.30;;;;;;;3.89;85.25;93604.19;4325151;32;20285;-59
2022/01/09 04:25:23;;;;;;;0.43;0.33;;;;;;;3.83;85.69;93603.50;4327148;32;20336;-59
2022/01/09 04:27:55;;;;;;;0.20;0.20;;;;;;;3.80;86.14;93611.94;4310931;32;20340;-60
2022/01/09 04:30:20;;;;;;;0.20;0.20;;;;;;;3.70;86.41;93604.31;4331882;32;20293;-59
2022/01/09 04:32:50;;;;;;;0.30;0.30;;;;;;;3.72;86.30;93605.56;4301492;33;20353;-59
2022/01/09 04:35:18;;;;;;;0.30;0.30;;;;;;;3.98;85.00;93605.81;4327901;32;20205;-59
2022/01/09 04:37:46;;;;;;;0.30;0.30;;;;;;;4.04;84.75;93607.25;4368067;32;20307;-59
2022/01/09 04:40:14;;;;;;;0.30;0.30;;;;;;;4.05;84.00;93600.16;4356572;32;20340;-59
2022/01/09 04:43:03;;;;;;;0.37;0.37;;;;;;;3.96;84.60;93604.53;4338628;32;20387;-60
2022/01/09 04:45:33;;;;;;;0.80;0.30;;;;;;;3.80;85.06;93598.84;4334205;32;20298;-59
2022/01/09 04:48:03;;;;;;;0.30;0.30;;;;;;;3.96;83.76;93588.81;4343131;32;20303;-59
2022/01/09 04:50:34;;;;;;;0.20;0.20;;;;;;;3.90;83.78;93592.63;4349098;32;20282;-59
2022/01/09 04:53:09;;;;;;;0.10;0.10;;;;;;;3.93;83.31;93592.03;4344748;32;20349;-59
2022/01/09 04:55:39;;;;;;;0.27;0.27;;;;;;;4.06;81.72;93592.00;4316424;32;20303;-59
2022/01/09 04:58:27;;;;;;;0.20;0.20;;;;;;;3.99;82.07;93582.97;4348875;32;20355;-59
2022/01/09 05:00:56;;;;;;;0.33;0.30;;;;;;;4.03;81.49;93586.56;4353604;32;20383;-60
2022/01/09 05:03:25;;;;;;;0.20;0.20;;;;;;;3.98;81.81;93591.91;4369947;32;20286;-59
2022/01/09 05:05:52;;;;;;;0.20;0.20;;;;;;;3.94;81.91;93604.09;4353057;32;20440;-59
2022/01/09 05:08:18;;;;;;;0.10;0.10;;;;;;;3.74;82.89;93605.28;4361774;32;20311;-59
2022/01/09 05:10:45;;;;;;;0.30;0.30;;;;;;;3.88;82.62;93611.28;4350339;32;20300;-59
2022/01/09 05:13:10;;;;;;;0.30;0.23;;;;;;;3.92;82.83;93617.50;4356718;32;20319;-59
2022/01/09 05:15:39;;;;;;;0.20;0.20;;;;;;;4.15;81.49;93620.97;4362096;32;20281;-59
2022/01/09 05:18:12;;;;;;;0.20;0.20;;;;;;;4.10;81.79;93624.47;4322453;32;20239;-59
2022/01/09 05:20:40;;;;;;;0.20;0.20;;;;;;;3.88;83.13;93627.00;4336086;32;20290;-59
2022/01/09 05:23:06;;;;;;;0.20;0.20;;;;;;;4.06;83.22;93627.97;4338568;32;20331;-59
2022/01/09 05:25:33;;;;;;;0.10;0.10;;;;;;;4.08;84.12;93623.19;4342427;32;20281;-59
2022/01/09 05:28:00;;;;;;;0.33;0.33;;;;;;;4.15;84.95;93631.44;4333522;32;20289;-59
2022/01/09 05:30:28;;;;;;;0.10;0.10;;;;;;;4.22;85.69;93631.03;4347729;32;20343;-59
2022/01/09 05:32:55;;;;;;;0.10;0.10;;;;;;;4.06;86.81;93627.97;4344723;32;20292;-58
2022/01/09 05:35:25;;;;;;;0.20;0.10;;;;;;;4.16;87.36;93617.22;4371103;32;20296;-58
2022/01/09 05:37:53;;;;;;;0.30;0.20;;;;;;;4.21;87.07;93622.37;4337416;32;20302;-58
2022/01/09 05:40:20;;;;;;;0.10;0.10;;;;;;;4.33;87.04;93627.91;4336045;32;20292;-58
2022/01/09 05:42:47;;;;;;;0.10;0.10;;;;;;;4.26;87.15;93637.25;4351597;32;20289;-59
2022/01/09 05:45:17;;;;;;;0.20;0.20;;;;;;;4.23;86.91;93628.13;4312509;32;20293;-59
2022/01/09 05:47:44;;;;;;;0.10;0.10;;;;;;;4.36;86.71;93640.44;4311540;32;20326;-59
2022/01/09 05:50:11;;;;;;;0.10;0.10;;;;;;;4.41;86.43;93626.41;4325288;32;20389;-59
2022/01/09 05:52:38;;;;;;;0.53;0.10;;;;;;;4.48;86.04;93634.66;4326660;32;20303;-59
2022/01/09 05:55:03;;;;;;;0.10;0.10;;;;;;;4.54;85.48;93624.84;4346933;32;20285;-59
2022/01/09 05:57:30;;;;;;;0.10;0.10;;;;;;;4.48;85.59;93640.69;4335348;32;20424;-59
2022/01/09 06:00:01;;;;;;;0.20;0.20;;;;;;;4.54;85.99;93635.34;4340050;32;20203;-58
2022/01/09 06:02:28;;;;;;;0.10;0.10;;;;;;;4.56;85.33;93633.19;4332908;32;20278;-58
2022/01/09 06:04:54;;;;;;;0.20;0.20;;;;;;;4.72;84.31;93640.41;4329486;32;20304;-59
2022/01/09 06:07:21;;;;;;;0.67;0.17;;;;;;;4.72;83.89;93637.78;4358528;32;20290;-58
2022/01/09 06:09:49;;;;;;;0.10;0.10;;;;;;;4.72;83.74;93642.28;4336641;32;20282;-59
2022/01/09 06:12:16;;;;;;;0.10;0.10;;;;;;;4.68;83.77;93642.09;4345226;32;20285;-58
2022/01/09 06:14:42;;;;;;;0.10;0.10;;;;;;;4.69;83.64;93641.00;4339768;32;20348;-61
2022/01/09 06:17:07;;;;;;;0.00;0.00;;;;;;;4.70;82.88;93645.19;4350126;32;20281;-59
2022/01/09 06:19:33;;;;;;;0.10;0.10;;;;;;;4.77;83.20;93653.44;4339018;32;20293;-58
2022/01/09 06:22:00;;;;;;;0.10;0.10;;;;;;;4.87;83.06;93655.03;4348806;32;20215;-58
2022/01/09 06:24:25;;;;;;;0.83;0.40;;;;;;;4.82;83.98;93648.06;4325268;32;20300;-59
2022/01/09 06:26:53;;;;;;;0.10;0.10;;;;;;;4.67;84.89;93658.91;4333155;32;20325;-59
2022/01/09 06:29:19;;;;;;;0.10;0.10;;;;;;;4.61;86.12;93654.06;4341518;32;20204;-58
2022/01/09 06:31:45;;;;;;;0.10;0.03;;;;;;;4.57;87.17;93672.28;4305406;32;20309;-58
2022/01/09 06:34:15;;;;;;;0.20;0.20;;;;;;;4.46;88.74;93668.31;4332661;32;20422;-60
2022/01/09 06:36:43;;;;;;;0.10;0.10;;;;;;;4.34;89.36;93673.31;4353152;32;20296;-59
2022/01/09 06:39:09;;;;;;;0.20;0.00;;;;;;;4.36;89.37;93664.06;4339315;32;20316;-59
2022/01/09 06:41:36;;;;;;;3.50;0.00;;;;;;;4.26;89.01;93668.75;4362904;32;20337;-58
2022/01/09 06:44:03;;;;;;;0.10;0.10;;;;;;;4.39;88.16;93670.56;4362236;32;20364;-59
2022/01/09 06:46:30;;;;;;;0.20;0.20;;;;;;;4.28;88.98;93677.09;4357818;32;20371;-59
2022/01/09 06:48:56;;;;;;;0.10;0.10;;;;;;;4.25;88.91;93678.47;4348696;32;20285;-59
2022/01/09 06:51:25;;;;;;;0.10;0.10;;;;;;;4.46;88.44;93681.44;4341648;32;20281;-59
2022/01/09 06:53:50;;;;;;;0.10;0.10;;;;;;;4.39;88.32;93688.94;4344758;32;20305;-58
2022/01/09 06:56:17;;;;;;;0.53;0.10;;;;;;;4.46;88.54;93705.06;4351323;32;20305;-59
2022/01/09 06:58:43;;;;;;;0.10;0.10;;;;;;;4.40;88.11;93695.72;4372094;32;20200;-58
2022/01/09 07:01:12;;;;;;;0.10;0.10;;;;;;;4.34;88.38;93704.81;4347345;32;20293;-62
2022/01/09 07:03:39;;;;;;;0.10;0.10;;;;;;;4.22;88.38;93722.88;4339244;32;20284;-58
2022/01/09 07:06:05;;;;;;;0.87;0.10;;;;;;;4.33;88.89;93722.41;4355342;32;20292;-58
2022/01/09 07:08:35;;;;;;;0.10;0.10;;;;;;;4.31;88.50;93734.25;4352508;32;20284;-59
2022/01/09 07:11:23;;;;;;;0.10;0.10;;;;;;;4.27;88.90;93739.31;4353984;32;20411;-59
2022/01/09 07:13:51;;;;;;;0.07;0.07;;;;;;;4.28;91.27;93740.88;4368904;32;20323;-59
2022/01/09 07:16:18;;;;;;;0.10;0.10;;;;;;;4.52;90.00;93745.91;4374540;32;20289;-58
2022/01/09 07:18:45;;;;;;;0.10;0.10;;;;;;;4.21;89.05;93755.44;4351759;32;20375;-56
2022/01/09 07:21:13;;;;;;;0.10;0.10;;;;;;;4.35;89.61;93764.09;4333999;32;20289;-58
2022/01/09 07:23:39;;;;;;;0.20;0.10;;;;;;;4.39;88.46;93762.44;4358307;32;20303;-59
2022/01/09 07:26:07;;;;;;;0.00;0.00;;;;;;;4.18;88.30;93769.91;4356030;32;20293;-58
2022/01/09 07:28:34;;;;;;;0.10;0.10;;;;;;;4.13;89.40;93780.53;4346567;32;20205;-58
2022/01/09 07:31:00;;;;;;;0.00;0.00;;;;;;;3.99;90.03;93798.06;4355697;32;20285;-58
2022/01/09 07:33:28;;;;;;;0.10;0.10;;;;;;;4.02;90.70;93800.91;4362083;32;20350;-59
2022/01/09 07:35:55;;;;;;;0.00;0.00;;;;;;;3.91;90.89;93810.03;4341248;32;20200;-58
2022/01/09 07:38:22;;;;;;;0.07;0.07;;;;;;;3.74;91.79;93815.03;4348879;32;20396;-59
2022/01/09 07:40:50;;;;;;;0.10;0.10;;;;;;;3.76;92.32;93821.53;4327616;32;20296;-58
2022/01/09 07:43:18;;;;;;;0.10;0.10;;;;;;;3.71;92.54;93831.34;4329871;32;20310;-59
2022/01/09 07:45:44;;;;;;;0.30;0.10;;;;;;;3.73;92.35;93837.09;4357858;32;20314;-58
2022/01/09 07:48:14;;;;;;;0.20;0.20;;;;;;;3.73;92.59;93834.47;4351898;32;20340;-59
2022/01/09 07:50:39;;;;;;;0.73;0.00;;;;;;;3.48;93.35;93842.72;4307203;32;20341;-58
2022/01/09 07:53:06;;;;;;;0.40;0.10;;;;;;;3.52;93.20;93843.72;4342015;32;20289;-58
2022/01/09 07:55:33;;;;;;;0.10;0.10;;;;;;;3.73;92.91;93856.22;4345232;32;20257;-59
2022/01/09 07:57:59;;;;;;;0.20;0.20;;;;;;;3.61;93.27;93868.19;4337435;32;20283;-59
2022/01/09 08:00:26;;;;;;;0.00;0.00;;;;;;;3.51;93.76;93865.75;4351355;32;20353;-58
2022/01/09 08:02:53;;;;;;;0.00;0.00;;;;;;;3.50;94.50;93869.44;4340467;32;20379;-60
2022/01/09 08:05:19;;;;;;;0.43;0.30;;;;;;;3.31;94.49;93875.47;4328005;32;20353;-60
2022/01/09 08:07:45;;;;;;;0.00;0.00;;;;;;;3.30;95.12;93879.13;4343948;32;20293;-60
2022/01/09 08:10:12;;;;;;;0.37;0.00;;;;;;;3.42;94.63;93882.09;4338971;32;20285;-61
2022/01/09 08:12:38;;;;;;;0.10;0.10;;;;;;;3.44;94.96;93887.84;4349807;32;20189;-61
2022/01/09 08:15:06;;;;;;;0.10;0.10;;;;;;;3.40;94.73;93899.94;4336610;32;20304;-61
2022/01/09 08:17:32;;;;;;;0.10;0.10;;;;;;;3.32;95.01;93897.97;4316919;32;20235;-60
2022/01/09 08:20:00;;;;;;;0.10;0.10;;;;;;;3.28;95.03;93909.31;4335904;32;20277;-60
2022/01/09 08:22:29;;;;;;;0.03;0.03;;;;;;;3.29;95.18;93914.25;4336549;32;20308;-61
2022/01/09 08:24:55;;;;;;;0.00;0.00;;;;;;;3.32;95.50;93918.16;4330355;32;20286;-61
2022/01/09 08:27:21;;;;;;;0.10;0.10;;;;;;;3.28;95.89;93919.78;4335521;32;20322;-61
2022/01/09 08:29:48;;;;;;;0.10;0.10;;;;;;;3.35;95.42;93928.84;4334595;32;20251;-61
2022/01/09 08:32:13;;;;;;;0.10;0.10;;;;;;;3.41;95.02;93930.34;4322452;32;20308;-61
2022/01/09 08:34:41;;;;;;;0.10;0.10;;;;;;;3.27;95.42;93945.22;4345279;32;20285;-61
2022/01/09 08:37:11;;;;;;;0.20;0.10;;;;;;;3.44;95.50;93942.09;4338759;32;20204;-61
2022/01/09 08:39:43;;;;;;;0.27;0.27;;;;;;;3.49;95.34;93943.88;4339880;32;20331;-61
2022/01/09 08:42:10;;;;;;;0.10;0.10;;;;;;;3.54;94.85;93952.44;4349223;32;20289;-61
2022/01/09 08:44:37;;;;;;;0.10;0.10;;;;;;;3.59;94.44;93946.34;4352961;32;20301;-61
2022/01/09 08:47:03;;;;;;;0.10;0.10;;;;;;;3.58;94.37;93947.41;4372173;32;20289;-61
2022/01/09 08:49:29;;;;;;;0.10;0.10;;;;;;;3.53;94.49;93961.38;4359241;32;26467;-59
2022/01/09 08:51:56;;;;;;;0.20;0.20;;;;;;;3.72;93.78;93966.63;4339594;32;20288;-58
2022/01/09 08:54:24;;;;;;;0.10;0.10;;;;;;;3.67;93.65;93966.69;4334762;32;20258;-58
2022/01/09 08:56:50;;;;;;;0.20;0.20;;;;;;;3.72;93.82;93979.75;4331214;32;20285;-58
2022/01/09 08:59:17;;;;;;;0.20;0.20;;;;;;;3.83;92.83;93965.41;4338855;32;20285;-58
2022/01/09 09:01:43;;;;;;;0.57;0.27;;;;;;;3.60;93.41;93972.28;4337616;32;20336;-60
2022/01/09 09:04:12;;;;;;;0.20;0.20;;;;;;;3.60;93.67;93982.00;4349128;32;20273;-58
2022/01/09 09:07:00;;;;;;;0.10;0.10;;;;;;;3.67;93.41;93979.81;4352250;32;20285;-58
2022/01/09 09:09:26;;;;;;;0.20;0.20;;;;;;;3.71;93.24;93978.97;4355897;32;20335;-59
2022/01/09 09:11:53;;;;;;;0.20;0.20;;;;;;;3.56;93.20;93994.87;4357230;32;20357;-58
2022/01/09 09:14:20;;;;;;;0.27;0.20;;;;;;;3.63;93.58;93992.69;4340528;32;20297;-58
2022/01/09 09:16:48;;;;;;;0.20;0.20;;;;;;;3.73;93.54;93991.78;4355547;32;20336;-59
2022/01/09 09:19:14;;;;;;;0.20;0.20;;;;;;;3.88;92.03;94003.91;4350230;32;20325;-58
2022/01/09 09:21:40;;;;;;;0.20;0.20;;;;;;;3.74;92.25;94006.47;4371734;32;20296;-59
2022/01/09 09:24:08;;;;;;;0.10;0.10;;;;;;;3.87;92.54;94018.87;4344477;32;20286;-59
2022/01/09 09:26:34;;;;;;;1.13;0.30;;;;;;;3.97;91.39;94023.97;4339561;32;20294;-59
2022/01/09 09:29:02;;;;;;;0.17;0.17;;;;;;;3.82;92.30;94031.25;4355219;32;20392;-58
2022/01/09 09:31:29;;;;;;;0.10;0.10;;;;;;;3.88;92.12;94036.16;4357480;32;20192;-58
2022/01/09 09:33:54;;;;;;;0.37;0.20;;;;;;;3.85;91.49;94031.50;4355316;32;20310;-58
2022/01/09 09:36:23;;;;;;;0.10;0.10;;;;;;;3.87;91.78;94045.09;4328454;32;20293;-58
2022/01/09 09:38:50;;;;;;;0.37;0.37;;;;;;;3.84;92.22;94056.16;4336247;32;20195;-58
2022/01/09 09:41:22;;;;;;;0.30;0.30;;;;;;;3.92;92.10;94050.28;4338902;32;20308;-58
2022/01/09 09:43:48;;;;;;;0.17;0.17;;;;;;;3.92;91.63;94055.53;4310094;32;20293;-58
2022/01/09 09:46:16;;;;;;;0.67;0.43;;;;;;;3.98;91.30;94064.88;4344333;32;20361;-59
2022/01/09 09:48:43;;;;;;;0.13;0.13;;;;;;;4.05;91.25;94072.41;4340145;32;20185;-65
2022/01/09 09:51:11;;;;;;;0.10;0.10;;;;;;;3.96;90.52;94074.88;4346349;32;20273;-60
2022/01/09 09:53:36;;;;;;;0.40;0.40;;;;;;;4.06;90.41;94069.50;4345071;32;20319;-60
2022/01/09 09:56:04;;;;;;;0.70;0.43;;;;;;;4.01;90.85;94081.91;4304210;32;20281;-61
2022/01/09 09:58:32;;;;;;;0.40;0.40;;;;;;;3.88;91.08;94078.13;4331943;32;20292;-61
2022/01/09 10:01:00;;;;;;;0.10;0.10;;;;;;;3.90;91.10;94086.50;4334484;32;20300;-60
2022/01/09 10:03:32;;;;;;;1.37;0.60;;;;;;;3.97;90.85;94104.50;4332878;32;20290;-60
2022/01/09 10:05:59;;;;;;;0.87;0.23;;;;;;;3.88;91.84;94086.00;4312473;32;20286;-61
2022/01/09 10:08:39;;;;;;;0.37;0.37;;;;;;;3.92;91.50;94100.13;4298377;32;20311;-60
2022/01/09 10:11:22;;;;;;;0.30;0.30;;;;;;;4.07;91.59;94081.56;4298275;32;20276;-61
2022/01/09 10:14:14;;;;;;;1.00;0.37;;;;;;;3.76;92.46;94093.47;4360979;32;20281;-60
2022/01/09 10:16:41;;;;;;;0.87;0.80;;;;;;;3.96;92.03;94092.44;4348838;32;20353;-62
2022/01/09 10:19:08;;;;;;;0.40;0.40;;;;;;;3.96;91.91;94093.22;4298571;32;20305;-61
2022/01/09 10:21:33;;;;;;;0.30;0.30;;;;;;;3.97;91.80;94096.63;4316833;32;20388;-61
2022/01/09 10:24:21;;;;;;;0.57;0.30;;;;;;;3.92;92.22;94100.13;4353931;32;20326;-60
2022/01/09 10:26:50;;;;;;;0.40;0.40;;;;;;;3.95;91.92;94099.53;4333036;32;20185;-61
2022/01/09 10:29:20;;;;;;;0.50;0.50;;;;;;;4.26;91.96;94109.66;4333675;32;20280;-60
2022/01/09 10:31:50;;;;;;;0.70;0.70;;;;;;;4.43;90.43;94120.44;4346495;32;20297;-60
2022/01/09 10:34:17;;;;;;;0.47;0.47;;;;;;;4.26;90.65;94117.53;4323825;32;20352;-61
2022/01/09 10:36:47;;;;;;;1.40;0.70;;;;;;;4.30;90.87;94124.56;4331971;32;20345;-60
2022/01/09 10:39:16;;;;;;;0.30;0.30;;;;;;;4.41;90.13;94106.81;4342513;32;20319;-61
2022/01/09 10:42:03;;;;;;;0.40;0.30;;;;;;;4.33;90.09;94117.97;4324672;32;20293;-61
2022/01/09 10:44:37;;;;;;;0.53;0.40;;;;;;;4.46;89.54;94122.50;4330053;32;20281;-61
2022/01/09 10:47:21;;;;;;;1.43;0.83;;;;;;;4.43;89.00;94129.09;4314945;32;20340;-61
2022/01/09 10:49:53;;;;;;;1.40;1.30;;;;;;;4.38;88.93;94118.66;4337483;32;20343;-61
2022/01/09 10:52:25;;;;;;;0.90;0.70;;;;;;;4.63;88.01;94117.50;4360712;32;20282;-60
2022/01/09 10:55:03;;;;;;;0.33;0.33;;;;;;;4.56;87.21;94109.22;4314276;32;20285;-61
2022/01/09 10:57:32;;;;;;;0.90;0.50;;;;;;;4.40;87.04;94113.12;4335272;32;20327;-61
2022/01/09 11:00:13;;;;;;;2.30;1.20;;;;;;;4.69;86.40;94113.75;4351198;32;20333;-60
2022/01/09 11:02:40;;;;;;;1.53;0.87;;;;;;;4.79;86.07;94121.47;4348768;32;20345;-60
2022/01/09 11:05:08;;;;;;;0.87;0.40;;;;;;;4.96;84.95;94112.28;4347317;32;20305;-61
2022/01/09 11:07:36;;;;;;;1.67;0.67;;;;;;;5.05;84.11;94121.84;4338108;32;20295;-61
2022/01/09 11:10:05;;;;;;;1.00;0.90;;;;;;;4.97;84.07;94122.53;4337939;32;20417;-60
2022/01/09 11:12:45;;;;;;;0.77;0.77;;;;;;;4.96;83.85;94128.06;4331406;32;20357;-61
2022/01/09 11:15:18;;;;;;;0.90;0.57;;;;;;;5.04;82.18;94125.53;4331568;32;20301;-61
2022/01/09 11:17:46;;;;;;;2.53;0.57;;;;;;;5.21;82.06;94132.09;4357700;32;20289;-60
2022/01/09 11:20:11;;;;;;;1.07;0.57;;;;;;;4.82;81.92;94138.50;4335951;32;20284;-60
2022/01/09 11:23:00;;;;;;;0.60;0.53;;;;;;;5.15;80.84;94126.16;4306076;33;20336;-60
2022/01/09 11:25:44;;;;;;;1.40;0.90;;;;;;;5.18;79.65;94136.09;4331988;32;20253;-60
2022/01/09 11:28:38;;;;;;;0.87;0.50;;;;;;;5.16;79.74;94133.78;4338864;32;20446;-60
2022/01/09 11:32:17;;;;;;;1.83;0.60;;;;;;;5.29;79.09;94137.50;4346516;32;20299;-61
2022/01/09 11:34:52;;;;;;;1.43;1.00;;;;;;;5.33;79.05;94138.47;4194113;33;20371;-60
2022/01/09 11:37:40;;;;;;;2.67;1.33;;;;;;;5.26;78.17;94143.31;4248924;33;20340;-60
2022/01/09 11:40:31;;;;;;;2.00;0.70;;;;;;;5.33;78.69;94143.72;4339059;32;20279;-61
2022/01/09 11:43:09;;;;;;;1.40;0.67;;;;;;;5.30;78.89;94139.06;4317545;32;20290;-60
2022/01/09 11:46:05;;;;;;;0.67;0.47;;;;;;;5.17;78.34;94139.81;4329791;32;20294;-61
2022/01/09 11:48:45;;;;;;;1.27;0.60;;;;;;;5.31;78.17;94142.47;4313659;32;20354;-61
2022/01/09 11:51:13;;;;;;;0.53;0.50;;;;;;;5.62;76.64;94145.31;4311460;33;20289;-64
2022/01/09 11:54:20;;;;;;;1.47;0.63;;;;;;;5.57;75.98;94142.81;4333674;32;20300;-61